Time;durP1;ratioP1;P1;durP2;ratioP2;P2;SDS_P1;SDS_P2;PMS_P1;PMS_P2;Temp;Humidity;BMP_temperature;BMP_pressure;BME280_temperature;BME280_humidity;BME280_pressure;Samples;Min_cycle;Max_cycle;Signal;HPM_P1;HPM_P2
2022/01/30 00:02:17;;;;;;;307.98;147.25;;;1.50;99.90;;;;;;5036860;28;20068;-77
2022/01/30 00:04:44;;;;;;;313.05;143.30;;;1.50;99.90;;;;;;5018811;28;20042;-77
2022/01/30 00:07:12;;;;;;;296.67;135.95;;;1.50;99.90;;;;;;5050366;28;20072;-77
2022/01/30 00:09:39;;;;;;;254.68;118.18;;;1.50;99.90;;;;;;5031421;28;20115;-76
2022/01/30 00:12:10;;;;;;;324.35;147.65;;;1.50;99.90;;;;;;5048158;28;20034;-77
2022/01/30 00:14:40;;;;;;;306.73;145.77;;;1.60;99.90;;;;;;5031667;28;20053;-77
2022/01/30 00:17:12;;;;;;;265.75;129.85;;;1.60;99.90;;;;;;5027283;28;20522;-76
2022/01/30 00:19:44;;;;;;;290.35;137.48;;;1.70;99.90;;;;;;5030209;28;20520;-78
2022/01/30 00:22:21;;;;;;;299.23;146.55;;;1.70;99.90;;;;;;5049028;28;20041;-78
2022/01/30 00:24:53;;;;;;;310.83;150.73;;;1.70;99.90;;;;;;5020493;28;20053;-78
2022/01/30 00:27:30;;;;;;;295.80;143.10;;;1.70;99.90;;;;;;5020618;28;20068;-78
2022/01/30 00:29:58;;;;;;;315.10;151.45;;;1.70;99.90;;;;;;5024116;28;20046;-78
2022/01/30 00:32:26;;;;;;;312.48;149.48;;;1.70;99.90;;;;;;5016498;28;20045;-76
2022/01/30 00:34:56;;;;;;;281.73;137.65;;;1.70;99.90;;;;;;5037074;28;20045;-77
2022/01/30 00:37:23;;;;;;;284.38;137.40;;;1.70;99.90;;;;;;5018945;28;20095;-78
2022/01/30 00:39:50;;;;;;;282.10;138.55;;;1.70;99.90;;;;;;5036274;28;20093;-77
2022/01/30 00:42:18;;;;;;;295.88;141.55;;;1.70;99.90;;;;;;5017747;28;20053;-76
2022/01/30 00:44:47;;;;;;;293.52;145.27;;;1.60;99.90;;;;;;5036383;28;20056;-78
2022/01/30 00:47:14;;;;;;;277.27;141.05;;;1.50;99.90;;;;;;5022814;28;20401;-76
2022/01/30 00:49:42;;;;;;;259.55;130.35;;;1.50;99.90;;;;;;5001256;28;20042;-76
2022/01/30 00:52:11;;;;;;;290.05;140.50;;;1.40;99.90;;;;;;5018902;28;20034;-78
2022/01/30 00:54:39;;;;;;;280.00;135.90;;;1.30;99.90;;;;;;5020745;28;20029;-76
2022/01/30 00:57:07;;;;;;;284.90;139.57;;;1.20;99.90;;;;;;5037853;28;20048;-78
2022/01/30 00:59:34;;;;;;;302.17;147.50;;;1.10;99.90;;;;;;5006840;28;20077;-77
2022/01/30 01:02:04;;;;;;;291.88;142.90;;;1.10;99.90;;;;;;5003068;28;20108;-78
2022/01/30 01:04:32;;;;;;;297.52;146.15;;;1.00;99.90;;;;;;5017614;28;20037;-77
2022/01/30 01:06:59;;;;;;;287.83;141.40;;;1.00;99.90;;;;;;5018258;28;20137;-77
2022/01/30 01:09:35;;;;;;;316.27;155.75;;;1.00;99.90;;;;;;5001855;28;20049;-76
2022/01/30 01:12:32;;;;;;;312.83;152.07;;;1.00;99.90;;;;;;5019380;28;20080;-78
2022/01/30 01:23:25;;;;;;;325.10;157.67;;;1.00;99.90;;;;;;5019194;28;20048;-75
2022/01/30 01:25:54;;;;;;;310.02;150.45;;;1.00;99.90;;;;;;5024254;28;20041;-78
2022/01/30 01:28:22;;;;;;;295.35;144.40;;;0.90;99.90;;;;;;5012318;28;20052;-77
2022/01/30 01:30:50;;;;;;;277.52;134.55;;;1.00;99.90;;;;;;5007312;28;20140;-77
2022/01/30 01:33:19;;;;;;;264.13;127.88;;;1.00;99.90;;;;;;5016269;28;20054;-77
2022/01/30 01:35:47;;;;;;;267.00;127.03;;;1.00;99.90;;;;;;5029121;28;20080;-76
2022/01/30 01:38:15;;;;;;;279.42;135.18;;;1.10;99.90;;;;;;5020675;28;20144;-76
2022/01/30 01:40:50;;;;;;;269.42;130.07;;;1.10;99.90;;;;;;5020167;28;20487;-76
2022/01/30 01:43:18;;;;;;;262.20;125.03;;;1.10;99.90;;;;;;5019667;28;20132;-76
2022/01/30 01:45:48;;;;;;;229.65;113.80;;;1.10;99.90;;;;;;5019573;28;20045;-76
2022/01/30 01:48:15;;;;;;;261.67;127.28;;;1.10;99.90;;;;;;5037154;28;20053;-77
2022/01/30 01:50:53;;;;;;;260.40;131.55;;;1.10;99.90;;;;;;5013149;28;20053;-76
2022/01/30 01:53:23;;;;;;;270.20;129.55;;;1.10;99.90;;;;;;5011493;28;20084;-76
2022/01/30 01:55:52;;;;;;;265.02;125.00;;;1.00;99.90;;;;;;5036415;28;20068;-76
2022/01/30 01:58:25;;;;;;;254.13;125.72;;;1.00;99.90;;;;;;5019172;28;20037;-76
2022/01/30 02:01:13;;;;;;;235.13;116.55;;;1.00;99.90;;;;;;4997254;28;20053;-76
2022/01/30 02:03:43;;;;;;;236.70;116.32;;;0.90;99.90;;;;;;5036644;28;20146;-76
2022/01/30 02:06:16;;;;;;;211.68;106.72;;;0.80;99.90;;;;;;5020475;28;20213;-78
2022/01/30 02:08:50;;;;;;;210.13;103.47;;;1.00;99.90;;;;;;5020499;28;20045;-77
2022/01/30 02:11:29;;;;;;;212.00;100.75;;;1.10;99.90;;;;;;5036908;28;20570;-77
2022/01/30 02:27:56;;;;;;;212.82;105.03;;;1.50;99.90;;;;;;4992485;28;20057;-77
2022/01/30 02:30:28;;;;;;;200.10;103.82;;;1.50;99.90;;;;;;4996290;28;20053;-77
2022/01/30 02:32:57;;;;;;;184.82;91.47;;;1.50;99.90;;;;;;4996251;28;20109;-77
2022/01/30 02:35:24;;;;;;;184.73;90.70;;;1.50;99.90;;;;;;4998701;28;20474;-77
2022/01/30 02:37:54;;;;;;;181.10;93.32;;;1.40;99.90;;;;;;4995777;28;20047;-77
2022/01/30 02:40:22;;;;;;;175.80;88.50;;;1.30;99.90;;;;;;4995782;28;20622;-77
2022/01/30 02:42:53;;;;;;;167.60;86.00;;;1.20;99.90;;;;;;4995540;28;20070;-78
2022/01/30 02:45:24;;;;;;;179.13;91.22;;;1.20;99.90;;;;;;4995432;28;20060;-77
2022/01/30 02:47:59;;;;;;;173.32;86.57;;;1.40;99.90;;;;;;4996494;28;20046;-77
2022/01/30 02:50:36;;;;;;;162.23;79.40;;;1.30;99.90;;;;;;4994891;28;20047;-77
2022/01/30 02:53:09;;;;;;;157.23;77.45;;;1.30;99.90;;;;;;4994894;28;20049;-78
2022/01/30 02:55:37;;;;;;;142.30;71.35;;;1.30;99.90;;;;;;4996490;28;20054;-76
2022/01/30 02:58:04;;;;;;;135.75;66.47;;;1.40;99.90;;;;;;5007651;28;20140;-78
2022/01/30 03:00:33;;;;;;;142.02;72.72;;;1.40;99.90;;;;;;5007199;28;20513;-76
2022/01/30 03:03:01;;;;;;;136.02;66.75;;;1.50;99.90;;;;;;5005192;28;20053;-76
2022/01/30 03:05:29;;;;;;;136.30;72.13;;;1.50;99.90;;;;;;5006481;28;20041;-76
2022/01/30 03:07:57;;;;;;;150.45;75.88;;;1.60;99.90;;;;;;5030857;28;20050;-76
2022/01/30 03:10:26;;;;;;;154.18;78.88;;;1.70;99.90;;;;;;5030935;28;20064;-77
2022/01/30 03:12:54;;;;;;;163.98;84.05;;;1.70;99.90;;;;;;5024021;28;20170;-77
2022/01/30 03:15:21;;;;;;;169.25;85.22;;;1.70;99.90;;;;;;5044262;28;20046;-76
2022/01/30 03:17:49;;;;;;;164.10;83.20;;;1.80;99.90;;;;;;5014583;28;20519;-77
2022/01/30 03:20:16;;;;;;;168.35;85.05;;;1.80;99.90;;;;;;5015113;28;20056;-78
2022/01/30 03:22:44;;;;;;;160.27;82.68;;;1.80;99.90;;;;;;5014558;28;20831;-75
2022/01/30 03:25:12;;;;;;;163.20;84.25;;;1.80;99.90;;;;;;5033711;28;20037;-77
2022/01/30 03:27:55;;;;;;;174.27;89.22;;;1.70;99.90;;;;;;5019874;28;20045;-75
2022/01/30 03:30:31;;;;;;;173.25;89.35;;;1.60;99.90;;;;;;5014631;28;20459;-76
2022/01/30 03:33:01;;;;;;;176.20;87.05;;;1.50;99.90;;;;;;5000582;28;20110;-78
2022/01/30 03:35:31;;;;;;;174.18;85.60;;;1.50;99.90;;;;;;5007817;28;20050;-77
2022/01/30 03:37:59;;;;;;;163.45;81.53;;;1.50;99.90;;;;;;5000554;28;20069;-77
2022/01/30 03:40:28;;;;;;;148.38;73.63;;;1.50;99.90;;;;;;5000300;28;20381;-77
2022/01/30 03:42:57;;;;;;;138.23;66.80;;;1.60;99.90;;;;;;4995424;28;20463;-77
2022/01/30 03:45:25;;;;;;;125.35;64.10;;;1.60;99.90;;;;;;4995605;28;20047;-78
2022/01/30 03:47:55;;;;;;;123.20;62.50;;;1.60;99.90;;;;;;4994967;28;20578;-76
2022/01/30 03:50:31;;;;;;;137.07;69.15;;;1.70;99.90;;;;;;4997450;28;20065;-78
2022/01/30 03:52:59;;;;;;;141.68;72.75;;;1.70;99.90;;;;;;5005309;28;20070;-76
2022/01/30 03:55:26;;;;;;;140.68;71.78;;;1.80;99.90;;;;;;4994632;28;20050;-77
2022/01/30 03:57:54;;;;;;;133.90;69.75;;;1.80;99.90;;;;;;4994655;28;20492;-77
2022/01/30 04:00:24;;;;;;;146.07;75.65;;;1.80;99.90;;;;;;4994088;28;20042;-76
2022/01/30 04:03:00;;;;;;;144.55;73.88;;;1.70;99.90;;;;;;4993820;28;20061;-77
2022/01/30 04:05:28;;;;;;;126.13;63.40;;;1.70;99.90;;;;;;4994750;28;20070;-76
2022/01/30 04:08:00;;;;;;;124.00;65.20;;;1.70;99.90;;;;;;4995212;28;20046;-76
2022/01/30 04:10:44;;;;;;;110.15;55.88;;;1.60;99.90;;;;;;4999206;28;20383;-76
2022/01/30 04:13:25;;;;;;;110.55;53.72;;;1.60;99.90;;;;;;5019092;28;20057;-76
2022/01/30 04:16:14;;;;;;;101.82;54.13;;;1.50;99.90;;;;;;5006658;28;20580;-76
2022/01/30 04:19:00;;;;;;;106.97;52.92;;;1.60;99.90;;;;;;5002838;28;20061;-76
2022/01/30 04:21:43;;;;;;;120.68;61.40;;;1.50;99.90;;;;;;4994301;28;20101;-76
2022/01/30 04:24:23;;;;;;;116.97;57.13;;;1.50;99.90;;;;;;4995112;28;20139;-75
2022/01/30 04:26:53;;;;;;;111.20;56.63;;;1.50;99.90;;;;;;5036603;23;20456;-79
2022/01/30 04:29:46;;;;;;;114.97;55.45;;;1.60;99.90;;;;;;5025076;28;20417;-79
2022/01/30 04:32:42;;;;;;;107.53;52.08;;;1.70;99.90;;;;;;5031744;28;20068;-78
2022/01/30 04:35:23;;;;;;;109.60;55.15;;;1.90;99.90;;;;;;5021830;28;20054;-78
2022/01/30 04:38:16;;;;;;;123.78;62.55;;;1.90;99.90;;;;;;5022367;28;20077;-80
2022/01/30 04:53:14;;;;;;;119.07;59.47;;;2.00;99.90;;;;;;5023197;28;20449;-79
2022/01/30 04:59:12;;;;;;;108.95;55.72;;;1.90;99.90;;;;;;5017360;28;20045;-80
2022/01/30 05:02:01;;;;;;;119.85;59.67;;;1.80;99.90;;;;;;5022330;28;20422;-79
2022/01/30 05:04:50;;;;;;;122.00;60.45;;;1.80;99.90;;;;;;5040749;28;20045;-79
2022/01/30 05:07:52;;;;;;;122.65;61.60;;;1.90;99.90;;;;;;5022160;28;20057;-77
2022/01/30 05:10:38;;;;;;;122.07;59.67;;;1.90;99.90;;;;;;5027564;28;20564;-79
2022/01/30 05:13:28;;;;;;;115.63;60.28;;;1.90;99.90;;;;;;5040773;28;20057;-80
2022/01/30 05:16:17;;;;;;;117.25;61.90;;;1.90;99.90;;;;;;5013915;28;20046;-80
2022/01/30 05:19:08;;;;;;;120.75;60.13;;;1.90;99.90;;;;;;5027297;28;20099;-79
2022/01/30 05:21:45;;;;;;;113.63;59.97;;;1.80;99.90;;;;;;5024564;28;20042;-79
2022/01/30 05:24:34;;;;;;;100.28;52.88;;;1.80;99.90;;;;;;5045164;28;20064;-79
2022/01/30 05:27:15;;;;;;;88.30;46.15;;;1.60;99.90;;;;;;5023067;28;20058;-79
2022/01/30 05:29:43;;;;;;;94.72;50.13;;;1.60;99.90;;;;;;5026468;28;20045;-79
2022/01/30 05:32:22;;;;;;;107.95;55.55;;;1.50;99.90;;;;;;5022401;28;20133;-78
2022/01/30 05:34:55;;;;;;;116.65;60.60;;;1.50;99.90;;;;;;5018212;28;20108;-79
2022/01/30 05:37:39;;;;;;;111.63;55.58;;;1.50;99.90;;;;;;5017496;28;20050;-78
2022/01/30 05:40:41;;;;;;;122.15;62.13;;;1.40;99.90;;;;;;5007018;28;20049;-79
2022/01/30 05:43:22;;;;;;;127.40;64.60;;;1.30;99.90;;;;;;5018594;28;20057;-79
2022/01/30 05:46:13;;;;;;;117.40;56.78;;;1.10;99.90;;;;;;5018790;28;20056;-79
2022/01/30 05:49:14;;;;;;;120.97;62.38;;;1.00;99.90;;;;;;5011438;28;20057;-80
2022/01/30 05:52:00;;;;;;;108.95;55.95;;;1.00;99.90;;;;;;5023511;28;20049;-78
2022/01/30 05:54:36;;;;;;;110.55;54.30;;;1.00;99.90;;;;;;5021381;28;20077;-80
2022/01/30 05:57:06;;;;;;;109.07;54.58;;;1.00;99.90;;;;;;5021977;28;20054;-79
2022/01/30 05:59:34;;;;;;;106.25;53.35;;;0.90;99.90;;;;;;5022346;28;20050;-78
2022/01/30 06:02:32;;;;;;;121.13;60.38;;;0.90;99.90;;;;;;5010872;28;20594;-81
2022/01/30 06:04:59;;;;;;;133.20;66.70;;;0.90;99.90;;;;;;5021713;28;20033;-80
2022/01/30 06:07:30;;;;;;;141.38;73.40;;;0.90;99.90;;;;;;5022073;28;20060;-80
2022/01/30 06:09:58;;;;;;;130.07;66.75;;;0.80;99.90;;;;;;5022429;28;20050;-79
2022/01/30 06:12:27;;;;;;;136.18;65.38;;;0.80;99.90;;;;;;5014585;28;20094;-78
2022/01/30 06:14:55;;;;;;;126.78;62.03;;;0.80;99.90;;;;;;4983180;28;20158;-78
2022/01/30 06:17:24;;;;;;;126.28;63.53;;;0.80;99.90;;;;;;4982598;28;20161;-79
2022/01/30 06:20:00;;;;;;;127.38;63.03;;;0.80;99.90;;;;;;4984200;28;20057;-79
2022/01/30 06:22:28;;;;;;;125.45;65.68;;;0.80;99.90;;;;;;4983978;28;20114;-77
2022/01/30 06:25:22;;;;;;;133.88;68.22;;;0.80;99.90;;;;;;4976099;28;20046;-80
2022/01/30 06:28:10;;;;;;;152.70;73.78;;;0.80;99.90;;;;;;5000108;28;20521;-80
2022/01/30 06:30:56;;;;;;;155.43;76.47;;;0.80;99.90;;;;;;5003396;28;20093;-79
2022/01/30 06:33:42;;;;;;;179.35;86.07;;;0.80;99.90;;;;;;5001987;28;20061;-80
2022/01/30 06:36:35;;;;;;;178.30;89.10;;;0.60;99.90;;;;;;4999114;28;20078;-78
2022/01/30 06:39:29;;;;;;;222.45;105.75;;;0.60;99.90;;;;;;4983737;28;20101;-78
2022/01/30 06:42:13;;;;;;;185.55;91.95;;;0.60;99.90;;;;;;4990623;28;20054;-80
2022/01/30 06:45:00;;;;;;;224.27;110.68;;;0.60;99.90;;;;;;5008509;28;20056;-80
2022/01/30 06:47:47;;;;;;;221.02;107.78;;;0.60;99.90;;;;;;5006487;28;20084;-80
2022/01/30 06:50:33;;;;;;;215.35;112.38;;;0.60;99.90;;;;;;5007698;28;20053;-80
2022/01/30 06:53:20;;;;;;;184.27;98.53;;;0.60;99.90;;;;;;5013190;28;20044;-80
2022/01/30 06:56:08;;;;;;;162.35;86.10;;;0.70;99.90;;;;;;5025784;28;20544;-79
2022/01/30 06:58:56;;;;;;;128.82;70.30;;;0.80;99.90;;;;;;5025113;28;20133;-79
2022/01/30 07:01:43;;;;;;;127.47;66.55;;;0.90;99.90;;;;;;5022257;28;20052;-80
2022/01/30 07:04:46;;;;;;;166.93;86.28;;;1.00;99.90;;;;;;4939294;29;20052;-78
2022/01/30 07:07:29;;;;;;;181.57;95.30;;;1.10;99.90;;;;;;5014057;28;20057;-80
2022/01/30 07:09:57;;;;;;;194.90;97.53;;;1.10;99.90;;;;;;5032997;28;20121;-78
2022/01/30 07:12:24;;;;;;;198.10;95.72;;;1.30;99.90;;;;;;4999222;28;20524;-75
2022/01/30 07:14:52;;;;;;;184.52;91.68;;;1.40;99.90;;;;;;5032925;28;20041;-80
2022/01/30 07:17:21;;;;;;;198.38;100.47;;;1.50;99.90;;;;;;5031196;28;20056;-83
2022/01/30 07:19:48;;;;;;;219.75;112.47;;;1.70;99.90;;;;;;5040039;28;20123;-81
2022/01/30 07:22:16;;;;;;;190.85;100.05;;;1.80;99.90;;;;;;5041440;28;20053;-82
2022/01/30 07:24:43;;;;;;;197.93;100.00;;;2.00;99.90;;;;;;5036529;28;20045;-78
2022/01/30 07:27:10;;;;;;;191.50;99.82;;;2.00;99.90;;;;;;4997278;28;20054;-80
2022/01/30 07:29:38;;;;;;;184.63;98.13;;;2.10;99.90;;;;;;4990507;28;20057;-80
2022/01/30 07:32:07;;;;;;;195.18;101.68;;;2.30;99.90;;;;;;4981367;28;20047;-81
2022/01/30 07:34:36;;;;;;;199.05;103.20;;;2.40;99.90;;;;;;4992996;28;20058;-80
2022/01/30 07:37:04;;;;;;;190.05;105.80;;;2.50;99.90;;;;;;5001054;28;20106;-83
2022/01/30 07:39:32;;;;;;;189.27;101.32;;;2.60;99.90;;;;;;4991177;28;20054;-79
2022/01/30 07:42:00;;;;;;;193.70;104.47;;;2.80;99.90;;;;;;4996407;28;20097;-79
2022/01/30 07:44:33;;;;;;;218.75;110.78;;;3.10;99.90;;;;;;4996858;28;20077;-80
2022/01/30 07:47:01;;;;;;;211.70;106.18;;;3.40;99.90;;;;;;4997972;28;20579;-81
2022/01/30 07:49:28;;;;;;;212.45;106.63;;;3.50;93.50;;;;;;4999440;28;20052;-81
2022/01/30 07:51:57;;;;;;;210.52;106.40;;;3.60;69.60;;;;;;4986272;28;20043;-80
2022/01/30 07:54:24;;;;;;;193.90;102.03;;;3.80;50.50;;;;;;5009005;28;20141;-81
2022/01/30 07:56:52;;;;;;;199.30;101.22;;;3.90;23.30;;;;;;4986248;28;20114;-78
2022/01/30 07:59:20;;;;;;;207.95;106.22;;;4.10;17.10;;;;;;4991222;28;20054;-81
2022/01/30 08:01:48;;;;;;;194.35;106.10;;;4.20;1.00;;;;;;4980620;28;20412;-80
2022/01/30 08:04:15;;;;;;;200.65;102.93;;;4.30;1.00;;;;;;4982920;28;20042;-82
2022/01/30 08:06:44;;;;;;;182.32;98.43;;;4.50;1.00;;;;;;4992031;28;20606;-81
2022/01/30 08:09:13;;;;;;;176.98;94.55;;;4.60;1.00;;;;;;4984768;28;20042;-81
2022/01/30 08:11:41;;;;;;;163.10;87.32;;;4.80;1.00;;;;;;5002702;28;20410;-81
2022/01/30 08:14:08;;;;;;;159.10;85.30;;;4.90;1.00;;;;;;4998934;28;20046;-82
2022/01/30 08:16:36;;;;;;;162.30;86.55;;;5.10;1.00;;;;;;5005450;28;20122;-79
2022/01/30 08:19:03;;;;;;;166.40;91.50;;;5.20;1.00;;;;;;4988355;28;20116;-82
2022/01/30 08:21:31;;;;;;;173.52;89.25;;;5.30;1.00;;;;;;4993984;28;20101;-81
2022/01/30 08:23:59;;;;;;;165.70;86.05;;;5.40;1.00;;;;;;4994596;28;20043;-83
2022/01/30 08:26:28;;;;;;;153.38;81.00;;;5.60;1.00;;;;;;5007586;28;20533;-82
2022/01/30 08:28:56;;;;;;;147.27;76.90;;;5.50;1.00;;;;;;5032807;28;20486;-81
2022/01/30 08:31:24;;;;;;;144.43;74.68;;;5.60;1.00;;;;;;5018367;28;20459;-78
2022/01/30 08:33:52;;;;;;;139.20;73.75;;;5.60;1.00;;;;;;4981618;28;20048;-80
2022/01/30 08:36:19;;;;;;;126.13;70.38;;;5.60;1.00;;;;;;5006176;28;20142;-79
2022/01/30 08:38:49;;;;;;;127.28;69.43;;;5.70;1.00;;;;;;5018255;28;20049;-80
2022/01/30 08:41:17;;;;;;;139.50;73.57;;;5.70;1.00;;;;;;5017267;28;20093;-82
2022/01/30 08:43:46;;;;;;;134.52;73.95;;;5.70;1.00;;;;;;5001611;28;20048;-83
2022/01/30 08:46:15;;;;;;;145.80;79.63;;;5.60;1.00;;;;;;5019032;28;20049;-80
2022/01/30 08:48:42;;;;;;;159.32;86.88;;;5.40;1.00;;;;;;5019940;28;20104;-82
2022/01/30 08:51:11;;;;;;;160.70;86.57;;;5.40;1.00;;;;;;5016372;28;20038;-82
2022/01/30 08:53:38;;;;;;;146.57;83.85;;;5.40;1.00;;;;;;5001442;28;20057;-81
2022/01/30 08:56:06;;;;;;;143.65;79.85;;;5.50;1.00;;;;;;5020233;28;20503;-82
2022/01/30 08:58:34;;;;;;;132.95;73.40;;;5.60;1.00;;;;;;5018931;28;20399;-82
2022/01/30 09:01:03;;;;;;;136.48;76.63;;;6.10;1.00;;;;;;5019050;28;20042;-80
2022/01/30 09:03:31;;;;;;;139.35;75.82;;;6.40;1.00;;;;;;5010242;28;20046;-81
2022/01/30 09:05:58;;;;;;;114.85;61.95;;;6.90;14.80;;;;;;5018983;28;20430;-79
2022/01/30 09:08:25;;;;;;;113.07;60.53;;;7.30;3.20;;;;;;4994774;28;20056;-80
2022/01/30 09:10:54;;;;;;;100.18;55.10;;;7.50;1.00;;;;;;4999713;28;20419;-80
2022/01/30 09:13:22;;;;;;;100.38;54.33;;;7.70;67.00;;;;;;4999234;28;20042;-79
2022/01/30 09:15:56;;;;;;;110.47;56.38;;;8.00;1.00;;;;;;5004397;28;20553;-80
2022/01/30 09:18:26;;;;;;;94.97;52.17;;;8.10;1.00;;;;;;4984083;28;20049;-81
2022/01/30 09:20:54;;;;;;;85.00;46.97;;;8.30;1.00;;;;;;4989935;28;20046;-79
2022/01/30 09:23:23;;;;;;;87.50;50.08;;;8.20;1.00;;;;;;5004133;28;20081;-80
2022/01/30 09:25:51;;;;;;;81.15;43.92;;;8.40;1.00;;;;;;5029559;28;20077;-81
2022/01/30 09:28:18;;;;;;;89.72;46.63;;;8.50;1.00;;;;;;5025240;28;20064;-82
2022/01/30 09:30:46;;;;;;;96.15;47.70;;;8.80;1.00;;;;;;5031721;28;20072;-82
2022/01/30 09:33:13;;;;;;;85.70;46.47;;;8.90;1.00;;;;;;5039647;28;20467;-83
2022/01/30 09:35:43;;;;;;;73.50;38.67;;;9.00;1.00;;;;;;5024856;28;20045;-82
2022/01/30 09:38:10;;;;;;;65.95;34.40;;;9.00;1.00;;;;;;5024424;28;20084;-83
2022/01/30 09:40:38;;;;;;;63.03;33.47;;;9.00;1.00;;;;;;5012520;28;20071;-81
2022/01/30 09:43:06;;;;;;;52.40;30.90;;;9.00;1.00;;;;;;5004192;28;20073;-82
2022/01/30 09:45:33;;;;;;;61.53;32.90;;;9.10;1.00;;;;;;5005299;28;20069;-81
2022/01/30 09:48:01;;;;;;;60.08;31.35;;;9.30;1.00;;;;;;5022265;28;20037;-84
2022/01/30 09:50:29;;;;;;;64.40;35.17;;;9.30;1.00;;;;;;5022550;28;20045;-81
2022/01/30 09:52:59;;;;;;;63.78;38.45;;;9.10;1.00;;;;;;5001666;28;20038;-80
2022/01/30 09:55:27;;;;;;;73.22;40.03;;;9.00;1.00;;;;;;5017727;28;20037;-82
2022/01/30 09:57:54;;;;;;;75.60;40.40;;;8.90;1.00;;;;;;5019619;28;20046;-80
2022/01/30 10:00:22;;;;;;;80.18;44.55;;;8.90;1.00;;;;;;5021872;28;20101;-82
2022/01/30 10:02:49;;;;;;;87.10;46.63;;;9.00;1.00;;;;;;5019796;28;20096;-83
2022/01/30 10:05:18;;;;;;;85.45;49.60;;;9.10;1.00;;;;;;5015957;28;20044;-81
2022/01/30 10:07:50;;;;;;;89.85;49.22;;;9.20;1.00;;;;;;4994857;28;20102;-82
2022/01/30 10:10:23;;;;;;;90.00;47.10;;;9.10;1.00;;;;;;5001887;28;20050;-84
2022/01/30 10:13:06;;;;;;;95.70;48.70;;;9.30;3.50;;;;;;4985943;28;20042;-81
2022/01/30 10:15:51;;;;;;;107.05;52.55;;;9.60;1.00;;;;;;4989659;28;20073;-80
2022/01/30 10:18:20;;;;;;;88.13;49.83;;;9.80;1.00;;;;;;5006428;28;20102;-81
2022/01/30 10:20:47;;;;;;;85.85;47.90;;;9.70;1.00;;;;;;5018481;28;20056;-82
2022/01/30 10:23:15;;;;;;;75.25;40.08;;;9.60;1.00;;;;;;5019991;28;20534;-81
2022/01/30 10:25:53;;;;;;;101.65;44.50;;;9.60;1.00;;;;;;5006122;28;20038;-80
2022/01/30 10:28:26;;;;;;;77.45;42.13;;;9.40;1.00;;;;;;5007440;28;20082;-79
2022/01/30 10:30:55;;;;;;;65.43;33.88;;;9.30;1.00;;;;;;5018894;28;20398;-81
2022/01/30 10:33:24;;;;;;;76.70;37.22;;;9.20;1.00;;;;;;5024494;28;20062;-79
2022/01/30 10:35:56;;;;;;;80.53;33.20;;;9.30;1.00;;;;;;5019252;28;20129;-79
2022/01/30 10:38:26;;;;;;;95.50;38.67;;;9.60;1.00;;;;;;5032454;28;20045;-79
2022/01/30 10:40:58;;;;;;;75.72;40.05;;;9.60;1.00;;;;;;5019706;28;20462;-80
2022/01/30 10:43:49;;;;;;;80.70;42.33;;;9.80;1.00;;;;;;5009974;28;20090;-79
2022/01/30 10:46:21;;;;;;;83.20;44.60;;;9.70;1.00;;;;;;5021035;28;20045;-81
2022/01/30 10:48:54;;;;;;;79.65;43.97;;;9.80;1.00;;;;;;5021704;28;20100;-81
2022/01/30 10:51:22;;;;;;;74.57;39.63;;;9.90;1.00;;;;;;5023362;28;20053;-83
2022/01/30 10:53:51;;;;;;;63.83;35.05;;;9.90;1.00;;;;;;5009113;28;20445;-83
2022/01/30 10:56:26;;;;;;;60.92;33.97;;;9.90;1.00;;;;;;4999330;28;20046;-84
2022/01/30 10:59:10;;;;;;;58.65;32.67;;;9.80;1.00;;;;;;5036867;28;20048;-84
2022/01/30 11:01:39;;;;;;;66.13;33.17;;;9.70;1.00;;;;;;5003601;28;20368;-82
2022/01/30 11:04:07;;;;;;;64.22;35.08;;;9.50;1.00;;;;;;5022416;28;20148;-82
2022/01/30 11:06:39;;;;;;;68.22;36.13;;;9.40;1.00;;;;;;5020096;28;20040;-83
2022/01/30 11:09:08;;;;;;;66.05;35.15;;;9.20;1.00;;;;;;4999797;28;20426;-82
2022/01/30 11:11:41;;;;;;;61.20;33.75;;;9.00;1.00;;;;;;5009250;28;20416;-82
2022/01/30 11:14:20;;;;;;;70.18;37.97;;;8.90;1.00;;;;;;5010868;28;20050;-82
2022/01/30 11:17:02;;;;;;;69.32;37.92;;;8.80;1.00;;;;;;5005491;28;20066;-80
2022/01/30 11:19:32;;;;;;;75.80;39.88;;;8.70;1.00;;;;;;5009592;28;20503;-81
2022/01/30 11:22:01;;;;;;;73.30;37.15;;;8.60;1.00;;;;;;5009906;28;20087;-81
2022/01/30 11:24:29;;;;;;;129.30;60.92;;;8.50;23.80;;;;;;5008080;28;20112;-78
2022/01/30 11:26:59;;;;;;;121.53;64.13;;;8.40;18.20;;;;;;5002637;28;20046;-83
2022/01/30 11:29:26;;;;;;;113.18;61.35;;;8.40;18.70;;;;;;5006175;28;20541;-82
2022/01/30 11:31:55;;;;;;;87.43;46.85;;;8.50;33.20;;;;;;4999962;28;20070;-81
2022/01/30 11:34:24;;;;;;;90.82;47.47;;;8.70;18.80;;;;;;5003689;28;20042;-81
2022/01/30 11:36:53;;;;;;;81.65;43.22;;;8.80;93.80;;;;;;5005619;28;20080;-83
2022/01/30 11:39:22;;;;;;;76.43;41.42;;;9.00;1.00;;;;;;5003725;28;20046;-82
2022/01/30 11:42:11;;;;;;;77.82;40.88;;;9.20;1.00;;;;;;4990057;28;20039;-82
2022/01/30 11:44:40;;;;;;;78.63;40.58;;;9.50;1.00;;;;;;5001804;28;20052;-80
2022/01/30 11:47:18;;;;;;;75.32;39.13;;;9.60;16.80;;;;;;5001079;28;20472;-82
2022/01/30 11:49:55;;;;;;;74.20;37.78;;;9.60;1.00;;;;;;5020742;28;20089;-81
2022/01/30 11:52:48;;;;;;;65.78;35.70;;;9.60;1.00;;;;;;4994855;28;20074;-83
2022/01/30 11:56:00;;;;;;;69.43;36.05;;;9.70;1.00;;;;;;5007080;28;20042;-80
2022/01/30 11:58:41;;;;;;;77.88;39.15;;;9.70;1.00;;;;;;5001386;28;20050;-82
2022/01/30 12:01:38;;;;;;;75.85;38.78;;;9.80;1.00;;;;;;5004852;28;20491;-82
2022/01/30 12:04:15;;;;;;;74.32;40.45;;;9.70;1.00;;;;;;5007809;28;20073;-84
2022/01/30 12:06:47;;;;;;;67.95;36.20;;;9.70;1.00;;;;;;4987175;28;20042;-83
2022/01/30 12:09:26;;;;;;;55.22;31.42;;;9.60;1.00;;;;;;5001462;28;20053;-83
2022/01/30 12:12:03;;;;;;;53.95;28.60;;;9.60;20.00;;;;;;5011693;28;20462;-81
2022/01/30 12:14:59;;;;;;;72.18;32.58;;;9.70;99.90;;;;;;5019116;28;20102;-80
2022/01/30 12:17:53;;;;;;;52.50;27.38;;;9.80;99.90;;;;;;5003119;28;20042;-82
2022/01/30 12:20:22;;;;;;;54.30;27.52;;;9.90;1.00;;;;;;5019833;28;20038;-83
2022/01/30 12:22:50;;;;;;;54.88;28.13;;;10.00;99.90;;;;;;5006414;28;20049;-81
2022/01/30 12:25:37;;;;;;;57.78;30.13;;;10.10;1.00;;;;;;5002192;28;20085;-81
2022/01/30 12:28:05;;;;;;;;;;;10.20;99.90;;;;;;5010602;28;20109;-82
2022/01/30 12:30:38;;;;;;;55.63;30.10;;;10.30;1.00;;;;;;5015268;28;19981;-83
2022/01/30 12:33:34;;;;;;;58.65;29.25;;;10.40;1.00;;;;;;5008193;28;20081;-83
2022/01/30 12:36:02;;;;;;;63.05;33.33;;;10.50;99.90;;;;;;5034377;28;20060;-82
2022/01/30 12:38:35;;;;;;;72.25;37.50;;;10.50;99.90;;;;;;4998117;28;20069;-81
2022/01/30 12:41:12;;;;;;;72.93;39.08;;;10.70;99.90;;;;;;5017784;28;20066;-80
2022/01/30 12:43:40;;;;;;;68.32;37.53;;;10.70;99.90;;;;;;5023297;28;20065;-82
2022/01/30 12:46:10;;;;;;;65.15;37.20;;;10.80;14.30;;;;;;5013380;28;20050;-78
2022/01/30 12:48:38;;;;;;;66.03;36.03;;;10.90;63.50;;;;;;5038019;28;20060;-78
2022/01/30 12:51:12;;;;;;;62.58;33.80;;;11.00;1.00;;;;;;5027965;28;20045;-82
2022/01/30 12:53:42;;;;;;;61.83;34.03;;;11.10;1.00;;;;;;5022147;28;20073;-83
2022/01/30 12:56:10;;;;;;;58.72;32.53;;;11.20;1.00;;;;;;4999401;28;20050;-82
2022/01/30 12:58:45;;;;;;;47.38;24.17;;;11.30;99.90;;;;;;5012496;28;20038;-82
2022/01/30 13:01:16;;;;;;;51.67;27.07;;;11.30;49.60;;;;;;5008743;28;20050;-83
2022/01/30 13:03:44;;;;;;;46.35;23.73;;;11.40;46.40;;;;;;5007402;28;20074;-81
2022/01/30 13:06:11;;;;;;;39.60;22.10;;;11.40;99.90;;;;;;5029763;28;20105;-82
2022/01/30 13:08:50;;;;;;;42.95;23.27;;;11.40;99.90;;;;;;5030222;28;20052;-80
2022/01/30 13:11:22;;;;;;;41.83;23.05;;;11.50;59.30;;;;;;5024442;28;20057;-81
2022/01/30 13:13:56;;;;;;;41.40;21.98;;;11.60;1.00;;;;;;5014404;28;20046;-79
2022/01/30 13:16:27;;;;;;;38.10;22.08;;;11.60;99.90;;;;;;5014104;28;20030;-81
2022/01/30 13:18:55;;;;;;;36.90;22.50;;;11.60;16.40;;;;;;5014096;28;20049;-80
2022/01/30 13:21:27;;;;;;;43.08;23.13;;;11.60;21.20;;;;;;5019506;28;20056;-80
2022/01/30 13:23:55;;;;;;;42.63;24.60;;;11.70;1.00;;;;;;5016913;28;20038;-81
2022/01/30 13:26:35;;;;;;;46.67;24.67;;;11.70;19.00;;;;;;5008432;28;20045;-81
2022/01/30 13:29:07;;;;;;;42.75;28.25;;;11.70;1.00;;;;;;5021507;28;20068;-81
2022/01/30 13:31:36;;;;;;;49.90;29.10;;;11.70;1.00;;;;;;5019619;28;20105;-82
2022/01/30 13:34:10;;;;;;;54.22;32.25;;;11.70;1.00;;;;;;5007673;28;20046;-83
2022/01/30 13:36:38;;;;;;;61.30;31.98;;;11.60;1.00;;;;;;5012411;28;20050;-82
2022/01/30 13:39:10;;;;;;;51.97;30.13;;;11.60;1.00;;;;;;5019315;28;20490;-81
2022/01/30 13:41:47;;;;;;;61.50;33.30;;;11.70;1.00;;;;;;5017146;28;20063;-81